Time;durP1;ratioP1;P1;durP2;ratioP2;P2;SDS_P1;SDS_P2;PMS_P1;PMS_P2;Temp;Humidity;BMP_temperature;BMP_pressure;BME280_temperature;BME280_humidity;BME280_pressure;Samples;Min_cycle;Max_cycle;Signal;HPM_P1;HPM_P2
2022/02/20 00:01:12;;;;;;;;;;;;;;;;;;4304205;33;19936;-77
2022/02/20 00:03:38;;;;;;;;;;;;;;;;;;4315390;33;20322;-76
2022/02/20 00:06:03;;;;;;;;;;;;;;;;;;4303706;33;20003;-74
2022/02/20 00:08:28;;;;;;;;;;;;;;;;;;4303212;33;19951;-77
2022/02/20 00:10:53;;;;;;;;;;;;;;;;;;4314612;33;20289;-75
2022/02/20 00:13:19;;;;;;;;;;;;;;;;;;4314014;33;19939;-78
2022/02/20 00:15:44;;;;;;;;;;;;;;;;;;4303959;33;19974;-77
2022/02/20 00:18:09;;;;;;;;;;;;;;;;;;4312581;33;19958;-77
2022/02/20 00:20:34;;;;;;;;;;;;;;;;;;4316544;33;19973;-77
2022/02/20 00:23:01;;;;;;;;;;;;;;;;;;4318258;33;20266;-74
2022/02/20 00:25:30;;;;;;;;;;;;;;;;;;4318277;33;19958;-77
2022/02/20 00:27:55;;;;;;;;;;;;;;;;;;4316087;33;19955;-74
2022/02/20 00:30:20;;;;;;;;;;;;;;;;;;4316214;33;19935;-77
2022/02/20 00:32:45;;;;;;;;;;;;;;;;;;4316966;33;19979;-77
2022/02/20 00:35:11;;;;;;;;;;;;;;;;;;4317589;33;19935;-75
2022/02/20 00:37:36;;;;;;;;;;;;;;;;;;4316919;33;19943;-76
2022/02/20 00:40:02;;;;;;;;;;;;;;;;;;4318120;33;20024;-76
2022/02/20 00:42:28;;;;;;;;;;;;;;;;;;4316530;33;19946;-76
2022/02/20 00:44:59;;;;;;;;;;;;;;;;;;4318554;33;20014;-73
2022/02/20 00:47:24;;;;;;;;;;;;;;;;;;4315908;33;19946;-76
2022/02/20 00:49:49;;;;;;;;;;;;;;;;;;4317095;33;19967;-75
2022/02/20 00:52:14;;;;;;;;;;;;;;;;;;4313492;33;20325;-78
2022/02/20 00:54:39;;;;;;;;;;;;;;;;;;4313811;33;19939;-77
2022/02/20 00:57:04;;;;;;;;;;;;;;;;;;4313942;33;19951;-77
2022/02/20 00:59:29;;;;;;;;;;;;;;;;;;4313599;33;19954;-76
2022/02/20 01:01:54;;;;;;;;;;;;;;;;;;4313432;33;20277;-75
2022/02/20 01:04:20;;;;;;;;;;;;;;;;;;4303587;33;19983;-77
2022/02/20 01:06:45;;;;;;;;;;;;;;;;;;4314267;33;19944;-74
2022/02/20 01:09:10;;;;;;;;;;;;;;;;;;4313121;33;19948;-76
2022/02/20 01:11:35;;;;;;;;;;;;;;;;;;4315512;33;19982;-76
2022/02/20 01:14:00;;;;;;;;;;;;;;;;;;4319887;33;19946;-74
2022/02/20 01:16:25;;;;;;;;;;;;;;;;;;4317075;33;19998;-76
2022/02/20 01:18:50;;;;;;;;;;;;;;;;;;4313687;33;19958;-75
2022/02/20 01:21:15;;;;;;;;;;;;;;;;;;4314611;33;19940;-73
2022/02/20 01:23:40;;;;;;;;;;;;;;;;;;4314876;33;19939;-74
2022/02/20 01:26:05;;;;;;;;;;;;;;;;;;4313443;33;19952;-75
2022/02/20 01:28:31;;;;;;;;;;;;;;;;;;4303222;33;19963;-77
2022/02/20 01:30:56;;;;;;;;;;;;;;;;;;4315374;33;19939;-78
2022/02/20 01:33:21;;;;;;;;;;;;;;;;;;4315232;33;19939;-75
2022/02/20 01:35:46;;;;;;;;;;;;;;;;;;4316350;33;19950;-75
2022/02/20 01:38:15;;;;;;;;;;;;;;;;;;4333728;28;20218;-72
2022/02/20 01:40:40;;;;;;;;;;;;;;;;;;4361481;32;19949;-72
2022/02/20 01:43:07;;;;;;;;;;;;;;;;;;4358849;33;19973;-71
2022/02/20 01:45:32;;;;;;;;;;;;;;;;;;4359800;32;20010;-71
2022/02/20 01:47:57;;;;;;;;;;;;;;;;;;4360130;32;20288;-72
2022/02/20 01:50:22;;;;;;;;;;;;;;;;;;4359002;33;20300;-71
2022/02/20 01:52:47;;;;;;;;;;;;;;;;;;4361108;32;19934;-72
2022/02/20 01:55:12;;;;;;;;;;;;;;;;;;4373706;32;19997;-71
2022/02/20 01:57:37;;;;;;;;;;;;;;;;;;4375514;32;20021;-72
2022/02/20 02:00:02;;;;;;;;;;;;;;;;;;4375064;32;20353;-71
2022/02/20 02:02:28;;;;;;;;;;;;;;;;;;4375445;32;20296;-72
2022/02/20 02:04:53;;;;;;;;;;;;;;;;;;4374191;32;19938;-72
2022/02/20 02:07:18;;;;;;;;;;;;;;;;;;4375212;32;19938;-71
2022/02/20 02:09:43;;;;;;;;;;;;;;;;;;4374275;32;19988;-72
2022/02/20 02:12:08;;;;;;;;;;;;;;;;;;4374953;32;19953;-71
2022/02/20 02:14:34;;;;;;;;;;;;;;;;;;4380354;32;20091;-71
2022/02/20 02:16:59;;;;;;;;;;;;;;;;;;4380342;32;19948;-71
2022/02/20 02:19:24;;;;;;;;;;;;;;;;;;4379184;32;19948;-71
2022/02/20 02:21:49;;;;;;;;;;;;;;;;;;4380294;32;20374;-71
2022/02/20 02:24:14;;;;;;;;;;;;;;;;;;4379979;32;19957;-72
2022/02/20 02:26:39;;;;;;;;;;;;;;;;;;4378189;32;20311;-71
2022/02/20 02:29:04;;;;;;;;;;;;;;;;;;4380932;32;19950;-71
2022/02/20 02:31:29;;;;;;;;;;;;;;;;;;4381727;32;19968;-71
2022/02/20 02:33:54;;;;;;;;;;;;;;;;;;4378692;32;19938;-71
2022/02/20 02:36:20;;;;;;;;;;;;;;;;;;4378908;32;19985;-72
2022/02/20 02:38:45;;;;;;;;;;;;;;;;;;4374054;32;19974;-71
2022/02/20 02:41:10;;;;;;;;;;;;;;;;;;4366705;32;19973;-72
2022/02/20 02:43:35;;;;;;;;;;;;;;;;;;4351141;32;20307;-72
2022/02/20 02:46:01;;;;;;;;;;;;;;;;;;4351057;32;19943;-71
2022/02/20 02:48:26;;;;;;;;;;;;;;;;;;4366237;32;20016;-72
2022/02/20 02:50:51;;;;;;;;;;;;;;;;;;4366606;32;19935;-71
2022/02/20 02:53:16;;;;;;;;;;;;;;;;;;4364753;33;19974;-71
2022/02/20 02:55:41;;;;;;;;;;;;;;;;;;4366739;32;19968;-71
2022/02/20 02:58:06;;;;;;;;;;;;;;;;;;4350955;33;19938;-72
2022/02/20 03:00:33;;;;;;;;;;;;;;;;;;4352804;32;20342;-72
2022/02/20 03:02:58;;;;;;;;;;;;;;;;;;4351148;32;19930;-72
2022/02/20 03:05:24;;;;;;;;;;;;;;;;;;4365482;32;19952;-72
2022/02/20 03:07:49;;;;;;;;;;;;;;;;;;4364872;33;19969;-72
2022/02/20 03:10:14;;;;;;;;;;;;;;;;;;4364379;33;19955;-72
2022/02/20 03:12:39;;;;;;;;;;;;;;;;;;4366564;32;20334;-71
2022/02/20 03:15:04;;;;;;;;;;;;;;;;;;4365044;32;19934;-71
2022/02/20 03:17:29;;;;;;;;;;;;;;;;;;4366086;32;20025;-72
2022/02/20 03:19:54;;;;;;;;;;;;;;;;;;4364765;32;20296;-72
2022/02/20 03:22:19;;;;;;;;;;;;;;;;;;4351377;32;19981;-73
2022/02/20 03:24:44;;;;;;;;;;;;;;;;;;4349089;33;19934;-71
2022/02/20 03:27:10;;;;;;;;;;;;;;;;;;4363646;32;19949;-72
2022/02/20 03:29:35;;;;;;;;;;;;;;;;;;4348634;33;19939;-72
2022/02/20 03:32:00;;;;;;;;;;;;;;;;;;4348594;32;19942;-72
2022/02/20 03:34:25;;;;;;;;;;;;;;;;;;4376164;32;19938;-75
2022/02/20 03:36:50;;;;;;;;;;;;;;;;;;4377057;32;19953;-72
2022/02/20 03:39:18;;;;;;;;;;;;;;;;;;4376867;32;19970;-72
2022/02/20 03:41:43;;;;;;;;;;;;;;;;;;4375702;32;19942;-71
2022/02/20 03:44:08;;;;;;;;;;;;;;;;;;4378650;32;20017;-71
2022/02/20 03:46:34;;;;;;;;;;;;;;;;;;4377003;32;20324;-71
2022/02/20 03:49:00;;;;;;;;;;;;;;;;;;4375568;32;19935;-71
2022/02/20 03:51:25;;;;;;;;;;;;;;;;;;4376077;32;19938;-72
2022/02/20 03:53:50;;;;;;;;;;;;;;;;;;4376742;32;19978;-71
2022/02/20 03:56:15;;;;;;;;;;;;;;;;;;4378803;32;20018;-72
2022/02/20 03:58:40;;;;;;;;;;;;;;;;;;4376783;32;19941;-72
2022/02/20 04:01:05;;;;;;;;;;;;;;;;;;4372032;32;20031;-71
2022/02/20 04:03:30;;;;;;;;;;;;;;;;;;4362219;32;19934;-71
2022/02/20 04:05:55;;;;;;;;;;;;;;;;;;4363314;32;20029;-72
2022/02/20 04:08:20;;;;;;;;;;;;;;;;;;4349592;32;20041;-72
2022/02/20 04:10:45;;;;;;;;;;;;;;;;;;4363204;32;19997;-71
2022/02/20 04:13:10;;;;;;;;;;;;;;;;;;4361944;32;19938;-71
2022/02/20 04:15:35;;;;;;;;;;;;;;;;;;4361748;33;19948;-72
2022/02/20 04:18:01;;;;;;;;;;;;;;;;;;4362618;32;19944;-72
2022/02/20 04:20:26;;;;;;;;;;;;;;;;;;4363290;32;19970;-72
2022/02/20 04:22:51;;;;;;;;;;;;;;;;;;4349738;32;19989;-73
2022/02/20 04:25:16;;;;;;;;;;;;;;;;;;4362970;32;20033;-73
2022/02/20 04:27:43;;;;;;;;;;;;;;;;;;4348148;33;19934;-71
2022/02/20 04:30:08;;;;;;;;;;;;;;;;;;4361535;32;20312;-73
2022/02/20 04:32:33;;;;;;;;;;;;;;;;;;4348793;33;20358;-73
2022/02/20 04:34:58;;;;;;;;;;;;;;;;;;4363359;32;19973;-73
2022/02/20 04:37:23;;;;;;;;;;;;;;;;;;4360704;33;19949;-73
2022/02/20 04:39:48;;;;;;;;;;;;;;;;;;4360898;32;19939;-73
2022/02/20 04:42:13;;;;;;;;;;;;;;;;;;4347665;33;20350;-72
2022/02/20 04:44:38;;;;;;;;;;;;;;;;;;4362735;32;19954;-73
2022/02/20 04:47:03;;;;;;;;;;;;;;;;;;4347525;33;19961;-73
2022/02/20 04:49:28;;;;;;;;;;;;;;;;;;4347469;33;19973;-72
2022/02/20 04:51:54;;;;;;;;;;;;;;;;;;4362942;32;19934;-74
2022/02/20 04:54:19;;;;;;;;;;;;;;;;;;4360786;32;19952;-72
2022/02/20 04:56:44;;;;;;;;;;;;;;;;;;4348884;32;19958;-72
2022/02/20 04:59:09;;;;;;;;;;;;;;;;;;4347179;33;20401;-71
2022/02/20 05:01:34;;;;;;;;;;;;;;;;;;4361817;32;19938;-71
2022/02/20 05:03:59;;;;;;;;;;;;;;;;;;4362687;32;19935;-72
2022/02/20 05:06:27;;;;;;;;;;;;;;;;;;4347225;33;19992;-72
2022/02/20 05:08:52;;;;;;;;;;;;;;;;;;4362280;32;19952;-72
2022/02/20 05:11:17;;;;;;;;;;;;;;;;;;4360723;32;19942;-72
2022/02/20 05:13:43;;;;;;;;;;;;;;;;;;4348822;32;19942;-72
2022/02/20 05:16:08;;;;;;;;;;;;;;;;;;4362347;32;20021;-72
2022/02/20 05:18:33;;;;;;;;;;;;;;;;;;4362165;32;19934;-71
2022/02/20 05:20:58;;;;;;;;;;;;;;;;;;4360903;33;19935;-72
2022/02/20 05:23:23;;;;;;;;;;;;;;;;;;4362589;32;20284;-72
2022/02/20 05:25:48;;;;;;;;;;;;;;;;;;4347439;33;19950;-72
2022/02/20 05:28:13;;;;;;;;;;;;;;;;;;4361289;32;19981;-72
2022/02/20 05:30:38;;;;;;;;;;;;;;;;;;4360431;32;19977;-72
2022/02/20 05:33:03;;;;;;;;;;;;;;;;;;4360752;32;20300;-73
2022/02/20 05:35:28;;;;;;;;;;;;;;;;;;4376649;32;20283;-73
2022/02/20 05:37:53;;;;;;;;;;;;;;;;;;4357439;32;19947;-72
2022/02/20 05:40:19;;;;;;;;;;;;;;;;;;4357035;33;19943;-73
2022/02/20 05:42:44;;;;;;;;;;;;;;;;;;4345696;33;19935;-73
2022/02/20 05:45:09;;;;;;;;;;;;;;;;;;4347204;33;19939;-73
2022/02/20 05:47:34;;;;;;;;;;;;;;;;;;4356467;32;19938;-73
2022/02/20 05:50:00;;;;;;;;;;;;;;;;;;4369606;32;19938;-73
2022/02/20 05:52:25;;;;;;;;;;;;;;;;;;4376094;32;19973;-73
2022/02/20 05:54:50;;;;;;;;;;;;;;;;;;4368183;32;19949;-73
2022/02/20 05:57:15;;;;;;;;;;;;;;;;;;4360933;32;19956;-73
2022/02/20 05:59:40;;;;;;;;;;;;;;;;;;4359731;33;20002;-73
2022/02/20 06:02:05;;;;;;;;;;;;;;;;;;4360758;32;19938;-73
2022/02/20 06:04:30;;;;;;;;;;;;;;;;;;4360751;32;19938;-73
2022/02/20 06:06:55;;;;;;;;;;;;;;;;;;4368936;32;19982;-73
2022/02/20 06:09:20;;;;;;;;;;;;;;;;;;4375325;32;19938;-72
2022/02/20 06:11:45;;;;;;;;;;;;;;;;;;4375371;32;19981;-73
2022/02/20 06:14:10;;;;;;;;;;;;;;;;;;4375624;32;19977;-73
2022/02/20 06:16:35;;;;;;;;;;;;;;;;;;4374894;32;20007;-73
2022/02/20 06:19:01;;;;;;;;;;;;;;;;;;4377043;32;19949;-73
2022/02/20 06:21:26;;;;;;;;;;;;;;;;;;4375751;32;19953;-72
2022/02/20 06:23:51;;;;;;;;;;;;;;;;;;4374015;32;19938;-73
2022/02/20 06:26:16;;;;;;;;;;;;;;;;;;4374864;32;19977;-72
2022/02/20 06:28:41;;;;;;;;;;;;;;;;;;4366792;32;19935;-72
2022/02/20 06:31:06;;;;;;;;;;;;;;;;;;4360204;33;20001;-72
2022/02/20 06:33:31;;;;;;;;;;;;;;;;;;4347569;33;19938;-72
2022/02/20 06:35:56;;;;;;;;;;;;;;;;;;4360834;32;19942;-72
2022/02/20 06:38:21;;;;;;;;;;;;;;;;;;4375279;32;19981;-72
2022/02/20 06:40:46;;;;;;;;;;;;;;;;;;4362931;32;19946;-71
2022/02/20 06:43:12;;;;;;;;;;;;;;;;;;4361634;33;19982;-72
2022/02/20 06:45:37;;;;;;;;;;;;;;;;;;4347963;33;19949;-72
2022/02/20 06:48:02;;;;;;;;;;;;;;;;;;4362105;32;19950;-72
2022/02/20 06:50:27;;;;;;;;;;;;;;;;;;4346564;33;19948;-72
2022/02/20 06:52:52;;;;;;;;;;;;;;;;;;4361877;33;19957;-71
2022/02/20 06:55:17;;;;;;;;;;;;;;;;;;4346808;33;20290;-71
2022/02/20 06:57:42;;;;;;;;;;;;;;;;;;4347860;33;20002;-71
2022/02/20 07:00:07;;;;;;;;;;;;;;;;;;4362215;32;19988;-71
2022/02/20 07:02:33;;;;;;;;;;;;;;;;;;4362470;33;20289;-71
2022/02/20 07:04:58;;;;;;;;;;;;;;;;;;4349907;33;19949;-73
2022/02/20 07:07:23;;;;;;;;;;;;;;;;;;4362721;32;19957;-72
2022/02/20 07:09:48;;;;;;;;;;;;;;;;;;4364043;32;19942;-73
2022/02/20 07:12:13;;;;;;;;;;;;;;;;;;4364031;32;19945;-71
2022/02/20 07:14:38;;;;;;;;;;;;;;;;;;4362944;33;20339;-71
2022/02/20 07:17:03;;;;;;;;;;;;;;;;;;4362986;32;19934;-70
2022/02/20 07:19:28;;;;;;;;;;;;;;;;;;4362616;33;19968;-72
2022/02/20 07:21:53;;;;;;;;;;;;;;;;;;4362363;32;19952;-70
2022/02/20 07:24:19;;;;;;;;;;;;;;;;;;4362644;33;19998;-71
2022/02/20 07:26:44;;;;;;;;;;;;;;;;;;4362438;32;19958;-70
2022/02/20 07:29:09;;;;;;;;;;;;;;;;;;4363622;32;19938;-71
2022/02/20 07:31:34;;;;;;;;;;;;;;;;;;4363778;32;20135;-70
2022/02/20 07:33:59;;;;;;;;;;;;;;;;;;4363794;32;19992;-71
2022/02/20 07:36:24;;;;;;;;;;;;;;;;;;4363389;32;19942;-70
2022/02/20 07:38:50;;;;;;;;;;;;;;;;;;4350029;32;19934;-70
2022/02/20 07:41:15;;;;;;;;;;;;;;;;;;4362046;32;19992;-70
2022/02/20 07:43:41;;;;;;;;;;;;;;;;;;4363675;32;20016;-69
2022/02/20 07:46:07;;;;;;;;;;;;;;;;;;4362715;32;19998;-70
2022/02/20 07:48:32;;;;;;;;;;;;;;;;;;4364204;32;19938;-69
2022/02/20 07:50:57;;;;;;;;;;;;;;;;;;4350242;32;19976;-70
2022/02/20 07:53:22;;;;;;;;;;;;;;;;;;4363435;32;19977;-70
2022/02/20 07:55:47;;;;;;;;;;;;;;;;;;4348622;33;19935;-70
2022/02/20 07:58:15;;;;;;;;;;;;;;;;;;4363716;32;19934;-69
2022/02/20 08:00:40;;;;;;;;;;;;;;;;;;4362289;32;19986;-69
2022/02/20 08:03:05;;;;;;;;;;;;;;;;;;4370495;32;19934;-70
2022/02/20 08:05:30;;;;;;;;;;;;;;;;;;4376496;32;19935;-69
2022/02/20 08:07:55;;;;;;;;;;;;;;;;;;4376904;32;20044;-69
2022/02/20 08:10:20;;;;;;;;;;;;;;;;;;4375982;32;19942;-70
2022/02/20 08:12:46;;;;;;;;;;;;;;;;;;4376860;32;19973;-69
2022/02/20 08:15:12;;;;;;;;;;;;;;;;;;4378446;32;19938;-69
2022/02/20 08:17:37;;;;;;;;;;;;;;;;;;4365605;32;19985;-69
2022/02/20 08:20:02;;;;;;;;;;;;;;;;;;4347028;33;19934;-69
2022/02/20 08:22:27;;;;;;;;;;;;;;;;;;4348820;33;19940;-69
2022/02/20 08:24:52;;;;;;;;;;;;;;;;;;4346886;33;20004;-70
2022/02/20 08:27:17;;;;;;;;;;;;;;;;;;4357501;32;19977;-71
2022/02/20 08:29:42;;;;;;;;;;;;;;;;;;4361072;32;19984;-69
2022/02/20 08:32:07;;;;;;;;;;;;;;;;;;4366087;32;19946;-69
2022/02/20 08:34:32;;;;;;;;;;;;;;;;;;4378225;32;19945;-70
2022/02/20 08:36:57;;;;;;;;;;;;;;;;;;4377086;32;19980;-69
2022/02/20 08:39:23;;;;;;;;;;;;;;;;;;4376877;32;19993;-71
2022/02/20 08:41:48;;;;;;;;;;;;;;;;;;4376648;32;19942;-71
2022/02/20 08:44:13;;;;;;;;;;;;;;;;;;4375946;32;19934;-69
2022/02/20 08:46:38;;;;;;;;;;;;;;;;;;4375846;32;19994;-69
2022/02/20 08:49:03;;;;;;;;;;;;;;;;;;4348425;33;19946;-69
2022/02/20 08:51:28;;;;;;;;;;;;;;;;;;4360961;32;19986;-70
2022/02/20 08:53:53;;;;;;;;;;;;;;;;;;4360000;32;19961;-70
2022/02/20 08:56:19;;;;;;;;;;;;;;;;;;4348026;33;19982;-69
2022/02/20 08:58:45;;;;;;;;;;;;;;;;;;4361295;32;20328;-69
2022/02/20 09:01:10;;;;;;;;;;;;;;;;;;4362103;32;20338;-69
2022/02/20 09:03:35;;;;;;;;;;;;;;;;;;4360805;32;19970;-70
2022/02/20 09:06:00;;;;;;;;;;;;;;;;;;4358278;32;20362;-68
2022/02/20 09:08:25;;;;;;;;;;;;;;;;;;4360363;32;20018;-71
2022/02/20 09:10:50;;;;;;;;;;;;;;;;;;4361864;32;20009;-70
2022/02/20 09:13:15;;;;;;;;;;;;;;;;;;4363049;32;20009;-69
2022/02/20 09:15:40;;;;;;;;;;;;;;;;;;4360395;32;19958;-69
2022/02/20 09:18:05;;;;;;;;;;;;;;;;;;4360005;33;20423;-70
2022/02/20 09:20:30;;;;;;;;;;;;;;;;;;4362316;32;19990;-70
2022/02/20 09:22:55;;;;;;;;;;;;;;;;;;4360446;32;20069;-69
2022/02/20 09:25:21;;;;;;;;;;;;;;;;;;4359896;33;20281;-69
2022/02/20 09:27:46;;;;;;;;;;;;;;;;;;4356545;32;20022;-69
2022/02/20 09:30:11;;;;;;;;;;;;;;;;;;4362085;32;19953;-69
2022/02/20 09:32:36;;;;;;;;;;;;;;;;;;4359574;32;19934;-69
2022/02/20 09:35:02;;;;;;;;;;;;;;;;;;4358829;32;20320;-69
2022/02/20 09:37:28;;;;;;;;;;;;;;;;;;4358930;33;19930;-70
2022/02/20 09:39:53;;;;;;;;;;;;;;;;;;4360264;32;19942;-69
2022/02/20 09:42:18;;;;;;;;;;;;;;;;;;4360605;32;19965;-69
2022/02/20 09:44:44;;;;;;;;;;;;;;;;;;4361890;32;19938;-69
2022/02/20 09:47:09;;;;;;;;;;;;;;;;;;4360651;32;19935;-69
2022/02/20 09:49:34;;;;;;;;;;;;;;;;;;4347348;33;20250;-69
2022/02/20 09:51:59;;;;;;;;;;;;;;;;;;4347991;32;19938;-68
2022/02/20 09:54:26;;;;;;;;;;;;;;;;;;4361835;32;19947;-69
2022/02/20 09:56:51;;;;;;;;;;;;;;;;;;4360480;32;19968;-69
2022/02/20 09:59:16;;;;;;;;;;;;;;;;;;4360229;33;19934;-69
2022/02/20 10:01:41;;;;;;;;;;;;;;;;;;4346567;33;19938;-69
2022/02/20 10:04:06;;;;;;;;;;;;;;;;;;4346624;33;20037;-69
2022/02/20 10:06:31;;;;;;;;;;;;;;;;;;4360870;32;19950;-69
2022/02/20 10:08:56;;;;;;;;;;;;;;;;;;4345723;33;19993;-70
2022/02/20 10:11:21;;;;;;;;;;;;;;;;;;4345918;33;19949;-70
2022/02/20 10:13:47;;;;;;;;;;;;;;;;;;4361194;33;19934;-72
2022/02/20 10:16:12;;;;;;;;;;;;;;;;;;4360095;33;19934;-70
2022/02/20 10:18:37;;;;;;;;;;;;;;;;;;4360365;33;19997;-70
2022/02/20 10:21:03;;;;;;;;;;;;;;;;;;4358634;33;19943;-71
2022/02/20 10:23:29;;;;;;;;;;;;;;;;;;4357554;33;19945;-70
2022/02/20 10:25:54;;;;;;;;;;;;;;;;;;4344920;33;19939;-71
2022/02/20 10:28:19;;;;;;;;;;;;;;;;;;4346422;33;20312;-69
2022/02/20 10:30:44;;;;;;;;;;;;;;;;;;4358795;33;19978;-69
2022/02/20 10:33:16;;;;;;;;;;;;;;;;;;4361928;32;19935;-69
2022/02/20 10:35:41;;;;;;;;;;;;;;;;;;4349704;33;20264;-69
2022/02/20 10:38:06;;;;;;;;;;;;;;;;;;4363966;32;20004;-71
2022/02/20 10:40:31;;;;;;;;;;;;;;;;;;4363581;32;20300;-70
2022/02/20 10:42:56;;;;;;;;;;;;;;;;;;4364547;32;19949;-70
2022/02/20 10:45:21;;;;;;;;;;;;;;;;;;4363601;32;20320;-70
2022/02/20 10:47:46;;;;;;;;;;;;;;;;;;4362794;33;19974;-70
2022/02/20 10:50:11;;;;;;;;;;;;;;;;;;4362802;32;19938;-69
2022/02/20 10:52:36;;;;;;;;;;;;;;;;;;4364932;32;19970;-70
2022/02/20 10:55:02;;;;;;;;;;;;;;;;;;4362672;33;19945;-70
2022/02/20 10:57:27;;;;;;;;;;;;;;;;;;4350275;33;19939;-69
2022/02/20 10:59:52;;;;;;;;;;;;;;;;;;4350245;33;19942;-70
2022/02/20 11:02:17;;;;;;;;;;;;;;;;;;4377476;32;20293;-70
2022/02/20 11:04:42;;;;;;;;;;;;;;;;;;4377997;32;19957;-69
2022/02/20 11:07:07;;;;;;;;;;;;;;;;;;4378772;32;19949;-70
2022/02/20 11:09:32;;;;;;;;;;;;;;;;;;4377491;32;20283;-70
2022/02/20 11:11:57;;;;;;;;;;;;;;;;;;4376965;32;19948;-70
2022/02/20 11:14:22;;;;;;;;;;;;;;;;;;4378461;32;19985;-69
2022/02/20 11:16:48;;;;;;;;;;;;;;;;;;4376030;32;19943;-69
2022/02/20 11:19:13;;;;;;;;;;;;;;;;;;4375768;32;20298;-69
2022/02/20 11:21:38;;;;;;;;;;;;;;;;;;4377323;32;19934;-71
2022/02/20 11:24:03;;;;;;;;;;;;;;;;;;4375812;32;19978;-69
2022/02/20 11:26:28;;;;;;;;;;;;;;;;;;4379123;32;19938;-68
2022/02/20 11:28:53;;;;;;;;;;;;;;;;;;4378464;32;19952;-71
2022/02/20 11:31:19;;;;;;;;;;;;;;;;;;4366499;32;19934;-69
2022/02/20 11:33:46;;;;;;;;;;;;;;;;;;4362211;32;19934;-69
2022/02/20 11:36:11;;;;;;;;;;;;;;;;;;4363615;32;20226;-69
2022/02/20 11:38:36;;;;;;;;;;;;;;;;;;4348951;33;20322;-71
2022/02/20 11:41:04;;;;;;;;;;;;;;;;;;4363843;32;19964;-71
2022/02/20 11:43:29;;;;;;;;;;;;;;;;;;4363198;32;19976;-69
2022/02/20 11:45:54;;;;;;;;;;;;;;;;;;4361721;32;19942;-70
2022/02/20 11:48:19;;;;;;;;;;;;;;;;;;4348251;33;19950;-70
2022/02/20 11:50:44;;;;;;;;;;;;;;;;;;4348093;33;19938;-69
2022/02/20 11:53:09;;;;;;;;;;;;;;;;;;4348665;33;19986;-69
2022/02/20 11:55:35;;;;;;;;;;;;;;;;;;4347905;33;20328;-70
2022/02/20 11:58:00;;;;;;;;;;;;;;;;;;4362540;32;19939;-70
2022/02/20 12:00:25;;;;;;;;;;;;;;;;;;4364115;32;19976;-71
2022/02/20 12:02:50;;;;;;;;;;;;;;;;;;4349284;32;19970;-69
2022/02/20 12:05:18;;;;;;;;;;;;;;;;;;4348852;33;19946;-69
2022/02/20 12:07:43;;;;;;;;;;;;;;;;;;4363859;32;20351;-70
2022/02/20 12:10:08;;;;;;;;;;;;;;;;;;4362909;32;20247;-69
2022/02/20 12:12:34;;;;;;;;;;;;;;;;;;4361576;33;19946;-69
2022/02/20 12:14:59;;;;;;;;;;;;;;;;;;4348619;33;19949;-70
2022/02/20 12:17:24;;;;;;;;;;;;;;;;;;4348233;33;19947;-69
2022/02/20 12:19:49;;;;;;;;;;;;;;;;;;4361751;32;19946;-70
2022/02/20 12:22:14;;;;;;;;;;;;;;;;;;4363315;32;19945;-70
2022/02/20 12:24:40;;;;;;;;;;;;;;;;;;4361246;32;19935;-71
2022/02/20 12:27:05;;;;;;;;;;;;;;;;;;4348960;32;19946;-68
2022/02/20 12:29:30;;;;;;;;;;;;;;;;;;4363076;32;19939;-69
2022/02/20 12:31:55;;;;;;;;;;;;;;;;;;4348988;33;19939;-70
2022/02/20 12:34:20;;;;;;;;;;;;;;;;;;4348804;33;20347;-70
2022/02/20 12:36:45;;;;;;;;;;;;;;;;;;4348964;32;19939;-70
2022/02/20 12:39:10;;;;;;;;;;;;;;;;;;4361280;32;19938;-69
2022/02/20 12:41:35;;;;;;;;;;;;;;;;;;4361097;33;20316;-69
2022/02/20 12:44:00;;;;;;;;;;;;;;;;;;4361394;33;19935;-70
2022/02/20 12:46:25;;;;;;;;;;;;;;;;;;4358824;32;19943;-70
2022/02/20 12:48:51;;;;;;;;;;;;;;;;;;4361945;32;19950;-70
2022/02/20 12:51:16;;;;;;;;;;;;;;;;;;4362972;32;19984;-69
2022/02/20 12:53:41;;;;;;;;;;;;;;;;;;4362743;32;19968;-68
2022/02/20 12:56:06;;;;;;;;;;;;;;;;;;4361675;32;19994;-69
2022/02/20 12:58:31;;;;;;;;;;;;;;;;;;4360829;32;19946;-69
2022/02/20 13:00:57;;;;;;;;;;;;;;;;;;4362192;32;19992;-70
2022/02/20 13:03:22;;;;;;;;;;;;;;;;;;4346926;33;19943;-69
2022/02/20 13:05:48;;;;;;;;;;;;;;;;;;4361211;32;19973;-69
2022/02/20 13:08:13;;;;;;;;;;;;;;;;;;4347377;33;20284;-71
2022/02/20 13:10:38;;;;;;;;;;;;;;;;;;4346973;33;19949;-70
2022/02/20 13:13:03;;;;;;;;;;;;;;;;;;4362247;32;19976;-70
2022/02/20 13:15:28;;;;;;;;;;;;;;;;;;4360507;32;19948;-69
2022/02/20 13:17:56;;;;;;;;;;;;;;;;;;4362441;32;20240;-72
2022/02/20 13:20:21;;;;;;;;;;;;;;;;;;4362361;32;20019;-70
2022/02/20 13:22:46;;;;;;;;;;;;;;;;;;4348495;32;19985;-70
2022/02/20 13:25:11;;;;;;;;;;;;;;;;;;4362244;32;19935;-71
2022/02/20 13:27:36;;;;;;;;;;;;;;;;;;4361111;32;19978;-70
2022/02/20 13:30:01;;;;;;;;;;;;;;;;;;4359965;33;20354;-70
2022/02/20 13:32:26;;;;;;;;;;;;;;;;;;4362344;32;19996;-70
2022/02/20 13:34:51;;;;;;;;;;;;;;;;;;4360775;32;19943;-70
2022/02/20 13:37:19;;;;;;;;;;;;;;;;;;4360607;32;20041;-71
2022/02/20 13:39:44;;;;;;;;;;;;;;;;;;4359307;33;19949;-69
2022/02/20 13:42:09;;;;;;;;;;;;;;;;;;4360826;32;19950;-69
2022/02/20 13:44:38;;;;;;;;;;;;;;;;;;4358675;32;20361;-69
2022/02/20 13:47:03;;;;;;;;;;;;;;;;;;4352121;32;19942;-70
2022/02/20 13:49:28;;;;;;;;;;;;;;;;;;4347669;32;19957;-70
2022/02/20 13:51:53;;;;;;;;;;;;;;;;;;4358704;32;19969;-69
2022/02/20 13:54:18;;;;;;;;;;;;;;;;;;4357057;32;19958;-69
2022/02/20 13:56:43;;;;;;;;;;;;;;;;;;4358551;32;19957;-70
2022/02/20 13:59:09;;;;;;;;;;;;;;;;;;4360821;32;19965;-69
2022/02/20 14:01:34;;;;;;;;;;;;;;;;;;4358633;32;19957;-71
2022/02/20 14:03:59;;;;;;;;;;;;;;;;;;4359082;33;20347;-71
2022/02/20 14:06:24;;;;;;;;;;;;;;;;;;4359812;32;19965;-74
2022/02/20 14:08:49;;;;;;;;;;;;;;;;;;4360739;32;20000;-72
2022/02/20 14:11:14;;;;;;;;;;;;;;;;;;4358951;33;19981;-71
2022/02/20 14:13:39;;;;;;;;;;;;;;;;;;4358059;33;19965;-71
2022/02/20 14:16:04;;;;;;;;;;;;;;;;;;4358630;33;19943;-71
2022/02/20 14:18:29;;;;;;;;;;;;;;;;;;4359017;33;19955;-71
2022/02/20 14:20:55;;;;;;;;;;;;;;;;;;4360241;32;20309;-71
2022/02/20 14:23:20;;;;;;;;;;;;;;;;;;4360344;33;20279;-71
2022/02/20 14:25:45;;;;;;;;;;;;;;;;;;4359662;33;20351;-71
2022/02/20 14:28:10;;;;;;;;;;;;;;;;;;4354647;32;19986;-72
2022/02/20 14:30:37;;;;;;;;;;;;;;;;;;4362152;32;19951;-72
2022/02/20 14:33:02;;;;;;;;;;;;;;;;;;4360861;33;19939;-73
2022/02/20 14:35:27;;;;;;;;;;;;;;;;;;4358908;33;19934;-71
2022/02/20 14:37:52;;;;;;;;;;;;;;;;;;4359841;33;20284;-72
2022/02/20 14:40:17;;;;;;;;;;;;;;;;;;4357823;33;20289;-70
2022/02/20 14:42:43;;;;;;;;;;;;;;;;;;4359427;33;19949;-71
2022/02/20 14:45:08;;;;;;;;;;;;;;;;;;4359691;33;19998;-72
2022/02/20 14:47:33;;;;;;;;;;;;;;;;;;4358957;33;19994;-71
2022/02/20 14:49:58;;;;;;;;;;;;;;;;;;4359055;32;19982;-71
2022/02/20 14:52:23;;;;;;;;;;;;;;;;;;4346572;33;19953;-71
2022/02/20 14:54:48;;;;;;;;;;;;;;;;;;4359790;33;19939;-70
2022/02/20 14:57:14;;;;;;;;;;;;;;;;;;4361101;33;19942;-71
2022/02/20 14:59:39;;;;;;;;;;;;;;;;;;4361194;32;19946;-70
2022/02/20 15:02:04;;;;;;;;;;;;;;;;;;4375065;32;19985;-71
2022/02/20 15:04:29;;;;;;;;;;;;;;;;;;4359558;32;20015;-70
2022/02/20 15:06:54;;;;;;;;;;;;;;;;;;4359652;33;19939;-71
2022/02/20 15:09:20;;;;;;;;;;;;;;;;;;4357742;33;19949;-70
2022/02/20 15:11:45;;;;;;;;;;;;;;;;;;4359216;33;19943;-70
2022/02/20 15:14:10;;;;;;;;;;;;;;;;;;4360932;33;20300;-70
2022/02/20 15:16:35;;;;;;;;;;;;;;;;;;4361047;33;19939;-70
2022/02/20 15:19:04;;;;;;;;;;;;;;;;;;4371001;32;20013;-70
2022/02/20 15:21:29;;;;;;;;;;;;;;;;;;4374883;32;20315;-70
2022/02/20 15:23:54;;;;;;;;;;;;;;;;;;4377167;32;20259;-71
2022/02/20 15:26:19;;;;;;;;;;;;;;;;;;4378002;32;19934;-71
2022/02/20 15:28:45;;;;;;;;;;;;;;;;;;4371479;32;19957;-69
2022/02/20 15:31:13;;;;;;;;;;;;;;;;;;4349952;33;19994;-69
2022/02/20 15:33:39;;;;;;;;;;;;;;;;;;4350300;32;19931;-70
2022/02/20 15:36:04;;;;;;;;;;;;;;;;;;4379024;32;20326;-71
2022/02/20 15:39:42;;;;;;;34.60;6.10;;;;;;;;;;4486052;31;20074;-73
2022/02/20 15:42:07;;;;;;;;;;;;;;;;;;4467888;32;20413;-74
2022/02/20 15:44:32;;;;;;;34.38;6.87;;;;;;;;;;4466318;32;19932;-72
2022/02/20 15:46:57;;;;;;;;;;;;;;;;;;4465777;32;20135;-72
2022/02/20 15:49:23;;;;;;;27.44;6.18;;;;;;;;;;4479413;32;20307;-73
2022/02/20 15:51:48;;;;;;;;;;;;;;;;;;4479568;32;20089;-72
2022/02/20 15:54:15;;;;;;;28.75;6.90;;;;;;;;;;4467170;32;19994;-73
2022/02/20 15:56:41;;;;;;;37.08;7.37;;;;;;;;;;4463417;32;20116;-73
2022/02/20 15:59:06;;;;;;;;;;;;;;;;;;4471377;32;20055;-71
2022/02/20 16:01:31;;;;;;;33.17;7.50;;;;;;;;;;4451888;32;20286;-72
2022/02/20 16:03:57;;;;;;;;;;;;;;;;;;4463805;32;20096;-73
2022/02/20 16:06:22;;;;;;;37.53;6.97;;;;;;;;;;4462422;32;19980;-72
2022/02/20 16:08:47;;;;;;;;;;;;;;;;;;4464591;32;20067;-72
2022/02/20 16:11:14;;;;;;;35.80;8.02;;;;;;;;;;4463813;32;19932;-73
2022/02/20 16:13:39;;;;;;;27.10;7.53;;;;;;;;;;4466089;32;20056;-72
2022/02/20 16:16:05;;;;;;;;;;;;;;;;;;4464608;32;20017;-73
2022/02/20 16:18:30;;;;;;;25.98;6.85;;;;;;;;;;4474193;32;19936;-71
2022/02/20 16:20:57;;;;;;;;;;;;;;;;;;4471166;32;20402;-76
2022/02/20 16:23:22;;;;;;;30.08;6.70;;;;;;;;;;4449765;32;19939;-73
2022/02/20 16:25:50;;;;;;;;;;;;;;;;;;4463874;32;20346;-73
2022/02/20 16:28:15;;;;;;;;;;;;;;;;;;4464637;32;19990;-71